Terminal Aerodrome Forecast
Issued by NWS Lake Charles, LA

Home | Current Version | Previous Version | Text Only | Print | Product List | Glossary On
Versions: 1 2 3 4 5 6 7 8 9 10 11 12 13 14 15 16 17 18 19 20 21 22 23
000
FTUS44 KLCH 181753 AAA
TAFBPT
TAF AMD
KBPT 181753Z 1818/1918 11010KT P6SM -RA BKN015 OVC020
     FM182300 21005KT P6SM BKN040 BKN130
     FM190700 21003KT 5SM BR SCT012 OVC020
      TEMPO 1909/1913 2SM BR SCT012 BKN025
     FM191400 20008KT P6SM SCT016 BKN025=

USA.gov is the U.S. government's official web portal to all federal, state and local government web resources and services.